Terminal Aerodrome Forecast
Issued by NWS Sterling, VA

Current Version | Previous Version | Text Only | Print | Product List | Glossary On
Versions: 1 2 3 4 5 6 7 8 9 10 11 12 13
000
FTUS41 KLWX 231720
TAFCHO
TAF
KCHO 231720Z 2318/2418 15005KT P6SM BKN060
     FM232000 15005KT P6SM SCT060
     FM240200 00000KT P6SM FEW250
     FM240700 00000KT 5SM BR FEW250
     FM241200 00000KT P6SM FEW045=

USA.gov is the U.S. government's official web portal to all federal, state and local government web resources and services.